createdAt,value
2023-04-25T00:02:04.961Z,9.50
2023-04-25T00:04:34.431Z,14.13
2023-04-25T00:07:04.663Z,11.23
2023-04-25T00:09:31.744Z,12.65
2023-04-25T00:11:58.801Z,10.18
2023-04-25T00:14:26.365Z,11.70
2023-04-25T00:16:53.393Z,13.95
2023-04-25T00:19:20.385Z,13.05
2023-04-25T00:21:47.459Z,11.55
2023-04-25T00:24:14.642Z,11.23
2023-04-25T00:26:41.665Z,13.82
2023-04-25T00:29:08.691Z,13.48
2023-04-25T00:31:35.751Z,15.20
2023-04-25T00:34:03.042Z,12.80
2023-04-25T00:36:30.018Z,13.70
2023-04-25T00:38:57.115Z,13.88
2023-04-25T00:41:33.128Z,11.32
2023-04-25T00:44:00.569Z,12.68
2023-04-25T00:46:27.651Z,10.23
2023-04-25T00:48:54.713Z,9.10
2023-04-25T00:51:22.158Z,7.63
2023-04-25T00:53:50.241Z,7.78
2023-04-25T00:56:17.661Z,7.50
2023-04-25T00:58:44.821Z,6.65
2023-04-25T01:01:12.274Z,8.00
2023-04-25T01:03:42.074Z,7.72
2023-04-25T01:06:12.329Z,11.57
2023-04-25T01:08:39.887Z,10.00
2023-04-25T01:11:07.352Z,11.70
2023-04-25T01:13:34.378Z,16.33
2023-04-25T01:16:01.871Z,10.77
2023-04-25T01:18:29.044Z,10.27
2023-04-25T01:20:56.752Z,12.43
2023-04-25T01:23:24.135Z,13.63
2023-04-25T01:25:51.325Z,15.05
2023-04-25T01:28:18.440Z,14.40
2023-04-25T01:30:45.555Z,11.45
2023-04-25T01:33:12.572Z,13.50
2023-04-25T01:35:39.854Z,16.23
2023-04-25T01:38:06.804Z,14.75
2023-04-25T01:40:33.837Z,14.10
2023-04-25T01:43:00.830Z,14.70
2023-04-25T01:45:27.826Z,16.65
2023-04-25T01:47:54.903Z,18.48
2023-04-25T01:50:22.113Z,22.08
2023-04-25T01:52:49.152Z,30.60
2023-04-25T01:55:16.272Z,49.95
2023-04-25T01:57:43.361Z,46.60
2023-04-25T02:00:11.392Z,42.78
2023-04-25T02:02:38.531Z,36.92
2023-04-25T02:05:06.207Z,17.33
2023-04-25T02:07:33.565Z,13.07
2023-04-25T02:10:00.644Z,11.95
2023-04-25T02:12:28.795Z,8.25
2023-04-25T02:14:55.953Z,5.65
2023-04-25T02:17:23.114Z,8.82
2023-04-25T02:19:50.279Z,6.60
2023-04-25T02:22:17.335Z,5.53
2023-04-25T02:24:44.584Z,7.05
2023-04-25T02:27:11.582Z,5.60
2023-04-25T02:29:38.940Z,2.80
2023-04-25T02:32:06.356Z,4.88
2023-04-25T02:34:33.407Z,1.52
2023-04-25T02:37:00.449Z,2.58
2023-04-25T02:39:28.383Z,4.03
2023-04-25T02:41:55.438Z,3.83
2023-04-25T02:44:22.720Z,1.27
2023-04-25T02:46:49.760Z,1.25
2023-04-25T02:49:16.837Z,2.15
2023-04-25T02:51:43.844Z,1.27
2023-04-25T02:54:11.094Z,1.83
2023-04-25T02:56:38.178Z,0.98
2023-04-25T02:59:05.149Z,1.20
2023-04-25T03:01:32.249Z,2.60
2023-04-25T03:03:59.309Z,3.47
2023-04-25T03:06:26.392Z,1.05
2023-04-25T03:08:53.392Z,2.38
2023-04-25T03:11:21.400Z,1.42
2023-04-25T03:13:48.666Z,2.75
2023-04-25T03:16:16.813Z,2.47
2023-04-25T03:18:43.894Z,2.22
2023-04-25T03:21:10.964Z,1.98
2023-04-25T03:23:37.984Z,3.22
2023-04-25T03:26:05.352Z,4.03
2023-04-25T03:28:32.450Z,3.95
2023-04-25T03:30:59.497Z,2.35
2023-04-25T03:33:26.627Z,2.97
2023-04-25T03:35:54.164Z,2.58
2023-04-25T03:38:21.274Z,4.00
2023-04-25T03:40:48.337Z,3.28
2023-04-25T03:43:15.917Z,3.42
2023-04-25T03:45:43.185Z,3.50
2023-04-25T03:48:10.304Z,5.43
2023-04-25T03:50:37.405Z,4.32
2023-04-25T03:53:04.446Z,2.28
2023-04-25T03:55:32.143Z,3.33
2023-04-25T03:58:01.981Z,5.25
2023-04-25T04:00:29.104Z,4.90
2023-04-25T04:02:56.385Z,6.50
2023-04-25T04:05:23.622Z,3.50
2023-04-25T04:07:50.687Z,5.65
2023-04-25T04:10:17.782Z,2.53
2023-04-25T04:12:45.349Z,3.60
2023-04-25T04:15:13.149Z,4.40
2023-04-25T04:17:40.319Z,4.82
2023-04-25T04:20:08.629Z,4.43
2023-04-25T04:22:36.031Z,6.25
2023-04-25T04:25:03.985Z,4.82
2023-04-25T04:27:31.119Z,3.65
2023-04-25T04:29:58.885Z,6.07
2023-04-25T04:32:26.706Z,5.03
2023-04-25T04:34:56.136Z,6.72
2023-04-25T04:37:23.912Z,4.63
2023-04-25T04:39:51.392Z,7.90
2023-04-25T04:42:18.451Z,4.47
2023-04-25T04:44:45.859Z,9.57
2023-04-25T04:47:15.247Z,5.30
2023-04-25T04:49:42.584Z,6.75
2023-04-25T04:52:09.731Z,6.78
2023-04-25T04:54:36.855Z,7.00
2023-04-25T04:57:04.051Z,6.40
2023-04-25T04:59:31.136Z,5.28
2023-04-25T05:01:58.204Z,5.57
2023-04-25T05:04:25.516Z,5.85
2023-04-25T05:06:52.698Z,8.23
2023-04-25T05:09:20.403Z,5.93
2023-04-25T05:11:47.579Z,7.40
2023-04-25T05:14:14.795Z,9.90
2023-04-25T05:16:42.014Z,8.75
2023-04-25T05:19:09.223Z,13.35
2023-04-25T05:21:36.483Z,15.88
2023-04-25T05:24:04.604Z,15.32
2023-04-25T05:26:32.194Z,12.55
2023-04-25T05:28:59.590Z,18.15
2023-04-25T05:31:26.851Z,15.73
2023-04-25T05:33:54.101Z,20.83
2023-04-25T05:36:21.141Z,21.98
2023-04-25T05:38:48.274Z,22.15
2023-04-25T05:41:15.475Z,17.90
2023-04-25T05:43:48.408Z,16.30
2023-04-25T05:46:16.802Z,18.45
2023-04-25T05:48:44.241Z,16.33
2023-04-25T05:51:11.369Z,15.32
2023-04-25T05:53:38.607Z,14.85
2023-04-25T05:56:06.024Z,11.90
2023-04-25T05:58:33.048Z,13.02
2023-04-25T06:01:00.722Z,19.13
2023-04-25T06:03:28.201Z,10.82
2023-04-25T06:05:55.582Z,11.90
2023-04-25T06:08:22.760Z,10.77
2023-04-25T06:10:50.130Z,9.45
2023-04-25T06:13:17.183Z,11.95
2023-04-25T06:15:44.460Z,8.98
2023-04-25T06:18:11.755Z,11.75
2023-04-25T06:20:39.041Z,10.40
2023-04-25T06:23:06.327Z,12.77
2023-04-25T06:25:33.416Z,14.50
2023-04-25T06:28:00.901Z,12.85
2023-04-25T06:30:28.249Z,10.40
2023-04-25T06:32:55.454Z,14.75
2023-04-25T06:35:22.539Z,14.70
2023-04-25T06:37:50.677Z,16.30
2023-04-25T06:40:18.702Z,18.52
2023-04-25T06:42:45.791Z,17.60
2023-04-25T06:45:12.863Z,17.35
2023-04-25T06:47:40.045Z,18.08
2023-04-25T06:50:07.687Z,17.63
2023-04-25T06:52:34.995Z,17.33
2023-04-25T06:55:02.098Z,24.75
2023-04-25T06:57:29.236Z,18.50
2023-04-25T07:00:01.953Z,20.38
2023-04-25T07:02:29.704Z,19.27
2023-04-25T07:05:00.896Z,26.77
2023-04-25T07:07:28.666Z,29.02
2023-04-25T07:09:56.072Z,33.40
2023-04-25T07:12:23.230Z,31.13
2023-04-25T07:14:50.462Z,36.92
2023-04-25T07:17:17.671Z,32.35
2023-04-25T07:19:44.867Z,33.70
2023-04-25T07:22:11.887Z,37.88
2023-04-25T07:24:39.415Z,38.10
2023-04-25T07:27:06.455Z,39.25
2023-04-25T07:29:34.080Z,43.58
2023-04-25T07:32:01.242Z,42.67
2023-04-25T07:34:28.486Z,40.90
2023-04-25T07:36:55.674Z,35.50
2023-04-25T07:39:24.287Z,31.20
2023-04-25T07:41:54.535Z,30.98
2023-04-25T07:44:22.503Z,33.15
2023-04-25T07:46:49.750Z,34.03
2023-04-25T07:49:17.152Z,35.88
2023-04-25T07:51:47.282Z,36.88
2023-04-25T07:54:15.783Z,39.40
2023-04-25T07:56:52.249Z,38.85
2023-04-25T07:59:20.464Z,32.13
2023-04-25T08:01:47.729Z,35.33
2023-04-25T08:04:15.368Z,39.28
2023-04-25T08:06:43.107Z,35.55
2023-04-25T08:09:10.654Z,33.20
2023-04-25T08:11:37.804Z,35.33
2023-04-25T08:14:05.159Z,31.67
2023-04-25T08:16:32.272Z,33.42
2023-04-25T08:19:00.860Z,32.03
2023-04-25T08:21:47.160Z,31.58
2023-04-25T08:24:14.488Z,27.40
2023-04-25T08:26:44.941Z,27.67
2023-04-25T08:29:12.209Z,22.08
2023-04-25T08:31:39.429Z,21.75
2023-04-25T08:37:19.671Z,18.15
2023-04-25T08:39:54.411Z,16.55
2023-04-25T08:42:23.542Z,17.40
2023-04-25T08:44:59.210Z,19.98
2023-04-25T08:47:28.412Z,15.80
2023-04-25T09:00:57.380Z,9.00
2023-04-25T09:03:32.278Z,11.38
2023-04-25T09:06:00.011Z,9.23
2023-04-25T09:13:34.986Z,9.25
2023-04-25T09:19:47.099Z,7.47
2023-04-25T09:22:19.344Z,6.25
2023-04-25T09:24:52.904Z,7.10
2023-04-25T09:27:21.216Z,9.77
2023-04-25T09:29:50.183Z,6.78
2023-04-25T09:32:24.853Z,6.72
2023-04-25T09:34:54.072Z,8.07
2023-04-25T09:37:25.025Z,8.82
2023-04-25T09:39:56.534Z,6.53
2023-04-25T09:42:25.336Z,9.25
2023-04-25T09:44:56.196Z,5.82
2023-04-25T09:47:24.862Z,5.90
2023-04-25T09:49:52.704Z,8.35
2023-04-25T09:52:25.672Z,4.32
2023-04-25T09:54:53.381Z,5.78
2023-04-25T09:57:27.238Z,5.07
2023-04-25T09:59:55.572Z,6.32
2023-04-25T10:02:24.375Z,7.38
2023-04-25T10:04:54.054Z,7.07
2023-04-25T10:07:22.587Z,4.90
2023-04-25T10:09:53.227Z,7.57
2023-04-25T10:14:47.563Z,5.30
2023-04-25T10:17:14.608Z,5.70
2023-04-25T10:19:41.964Z,9.10
2023-04-25T10:22:30.518Z,4.20
2023-04-25T10:24:57.766Z,4.15
2023-04-25T10:27:24.934Z,5.43
2023-04-25T10:30:16.813Z,8.55
2023-04-25T10:32:46.673Z,10.02
2023-04-25T10:35:36.959Z,6.68
2023-04-25T10:38:11.324Z,4.28
2023-04-25T10:40:38.566Z,6.43
2023-04-25T10:43:43.199Z,4.57
2023-04-25T10:51:55.467Z,4.57
2023-04-25T10:54:23.643Z,12.45
2023-04-25T10:56:51.277Z,6.60
2023-04-25T10:59:21.645Z,11.00
2023-04-25T11:01:53.062Z,8.00
2023-04-25T11:07:11.206Z,6.95
2023-04-25T11:09:41.237Z,3.72
2023-04-25T11:12:13.211Z,3.92
2023-04-25T11:25:38.464Z,4.90
2023-04-25T11:28:06.292Z,4.88
2023-04-25T11:30:36.137Z,3.47
2023-04-25T11:44:07.960Z,7.35
2023-04-25T11:59:27.258Z,5.43
2023-04-25T12:04:46.590Z,6.20
2023-04-25T12:07:22.696Z,7.25
2023-04-25T12:16:29.866Z,5.68
2023-04-25T12:19:01.499Z,6.93
2023-04-25T12:21:32.081Z,6.15
2023-04-25T12:29:29.574Z,7.32
2023-04-25T12:32:01.072Z,8.25
2023-04-25T12:34:35.635Z,5.70
2023-04-25T12:37:03.382Z,6.45
2023-04-25T12:39:36.545Z,6.85
2023-04-25T12:42:06.916Z,4.95
2023-04-25T12:44:39.285Z,5.45
2023-04-25T12:49:36.581Z,11.55
2023-04-25T12:52:04.831Z,7.60
2023-04-25T12:54:34.740Z,9.23
2023-04-25T12:57:06.134Z,11.70
2023-04-25T12:59:36.762Z,9.25
2023-04-25T13:02:06.331Z,9.80
2023-04-25T13:04:37.449Z,9.82
2023-04-25T13:10:35.299Z,6.63
2023-04-25T13:13:02.729Z,3.30
2023-04-25T13:15:30.122Z,5.30
2023-04-25T13:17:57.395Z,6.03
2023-04-25T13:20:25.032Z,4.43
2023-04-25T13:22:55.678Z,5.32
2023-04-25T13:27:56.276Z,5.22
2023-04-25T13:30:23.857Z,6.25
2023-04-25T13:32:51.271Z,8.73
2023-04-25T13:35:22.580Z,6.65
2023-04-25T13:41:18.980Z,9.35
2023-04-25T13:43:48.839Z,8.95
2023-04-25T13:46:46.554Z,5.70
2023-04-25T13:49:14.904Z,7.15
2023-04-25T13:51:43.632Z,7.20
2023-04-25T13:54:11.069Z,6.93
2023-04-25T13:56:38.288Z,5.75
2023-04-25T13:59:05.522Z,6.47
2023-04-25T14:01:35.649Z,6.85
2023-04-25T14:04:05.539Z,6.72
2023-04-25T14:06:33.301Z,9.00
2023-04-25T14:09:02.334Z,8.05
2023-04-25T14:11:32.673Z,6.10
2023-04-25T14:14:00.032Z,5.32
2023-04-25T14:16:27.565Z,6.22
2023-04-25T14:18:55.787Z,6.38
2023-04-25T14:21:22.975Z,7.97
2023-04-25T14:23:50.465Z,4.18
2023-04-25T14:26:17.776Z,4.03
2023-04-25T14:28:44.939Z,4.20
2023-04-25T14:31:12.045Z,6.57
2023-04-25T14:33:42.910Z,4.68
2023-04-25T14:36:10.428Z,7.70
2023-04-25T14:38:37.596Z,5.47
2023-04-25T14:41:08.277Z,4.60
2023-04-25T14:43:37.887Z,6.22
2023-04-25T14:46:09.689Z,5.43
2023-04-25T14:48:37.105Z,5.45
2023-04-25T14:51:04.567Z,7.97
2023-04-25T14:53:34.645Z,9.23
2023-04-25T14:56:01.724Z,11.18
2023-04-25T14:58:29.186Z,6.35
2023-04-25T15:00:56.881Z,5.43
2023-04-25T15:03:24.545Z,4.95
2023-04-25T15:05:51.932Z,4.47
2023-04-25T15:08:19.425Z,6.75
2023-04-25T15:10:47.535Z,4.82
2023-04-25T15:13:15.362Z,3.75
2023-04-25T15:15:42.659Z,3.65
2023-04-25T15:18:10.320Z,4.93
2023-04-25T15:20:37.765Z,4.22
2023-04-25T15:23:06.114Z,4.30
2023-04-25T15:25:33.377Z,4.93
2023-04-25T15:28:01.238Z,4.50
2023-04-25T15:30:28.547Z,7.18
2023-04-25T15:32:55.638Z,6.47
2023-04-25T15:35:22.834Z,9.20
2023-04-25T15:37:52.675Z,9.75
2023-04-25T15:40:19.836Z,9.60
2023-04-25T15:42:48.344Z,5.45
2023-04-25T15:45:17.593Z,11.13
2023-04-25T15:47:44.885Z,6.65
2023-04-25T15:50:12.550Z,5.00
2023-04-25T15:52:39.747Z,9.45
2023-04-25T15:55:07.914Z,5.72
2023-04-25T15:57:35.892Z,6.80
2023-04-25T16:00:13.534Z,3.58
2023-04-25T16:02:41.216Z,4.03
2023-04-25T16:05:09.403Z,5.15
2023-04-25T16:07:39.356Z,6.72
2023-04-25T16:10:07.277Z,4.57
2023-04-25T16:12:34.496Z,5.45
2023-04-25T16:15:05.598Z,6.70
2023-04-25T16:17:33.831Z,4.90
2023-04-25T16:20:13.659Z,14.80
2023-04-25T16:22:41.231Z,11.40
2023-04-25T16:25:08.833Z,5.13
2023-04-25T16:27:39.653Z,8.98
2023-04-25T16:30:08.625Z,8.05
2023-04-25T16:32:36.384Z,12.93
2023-04-25T16:35:03.727Z,12.23
2023-04-25T16:37:35.811Z,12.00
2023-04-25T16:40:03.290Z,14.43
2023-04-25T16:42:30.486Z,14.55
2023-04-25T16:44:57.875Z,18.70
2023-04-25T16:47:25.754Z,21.63
2023-04-25T16:49:53.450Z,25.88
2023-04-25T16:52:23.884Z,24.08
2023-04-25T16:54:51.241Z,37.95
2023-04-25T16:57:18.588Z,33.40
2023-04-25T16:59:46.178Z,24.23
2023-04-25T17:02:13.663Z,21.58
2023-04-25T17:04:41.261Z,14.25
2023-04-25T17:07:09.252Z,11.23
2023-04-25T17:09:36.608Z,11.82
2023-04-25T17:12:04.499Z,32.53
2023-04-25T17:14:33.424Z,43.13
2023-04-25T17:17:01.045Z,98.85
2023-04-25T17:19:28.801Z,74.85
2023-04-25T17:21:56.242Z,70.90
2023-04-25T17:24:23.265Z,66.93
2023-04-25T17:26:50.479Z,62.97
2023-04-25T17:29:17.727Z,53.70
2023-04-25T17:31:45.093Z,43.45
2023-04-25T17:34:16.676Z,44.97
2023-04-25T17:36:47.635Z,46.13
2023-04-25T17:39:17.805Z,27.50
2023-04-25T17:41:45.245Z,30.08
2023-04-25T17:44:12.373Z,43.58
2023-04-25T17:46:39.521Z,56.65
2023-04-25T17:49:06.793Z,52.63
2023-04-25T17:51:33.840Z,37.20
2023-04-25T17:54:00.960Z,32.83
2023-04-25T17:56:28.076Z,25.35
2023-04-25T17:58:55.944Z,32.17
2023-04-25T18:01:23.306Z,30.50
2023-04-25T18:03:51.086Z,30.83
2023-04-25T18:06:18.492Z,34.08
2023-04-25T18:08:46.064Z,29.08
2023-04-25T18:11:13.320Z,62.63
2023-04-25T18:13:41.607Z,76.15
2023-04-25T18:16:08.916Z,119.32
2023-04-25T18:18:37.151Z,152.52
2023-04-25T18:21:06.032Z,135.90
2023-04-25T18:23:39.804Z,125.45
2023-04-25T18:26:08.189Z,98.72
2023-04-25T18:28:35.659Z,88.47
2023-04-25T18:31:02.857Z,87.72
2023-04-25T18:33:30.216Z,77.65
2023-04-25T18:35:59.927Z,80.20
2023-04-25T18:41:13.035Z,84.30
2023-04-25T18:43:48.153Z,58.88
2023-04-25T18:46:15.481Z,44.03
2023-04-25T18:49:31.176Z,64.90
2023-04-25T18:51:58.530Z,55.55
2023-04-25T18:54:27.627Z,57.25
2023-04-25T18:56:57.557Z,71.28
2023-04-25T18:59:25.015Z,88.18
2023-04-25T19:01:53.841Z,86.53
2023-04-25T19:04:21.880Z,80.95
2023-04-25T19:06:54.764Z,87.68
2023-04-25T19:09:22.105Z,89.00
2023-04-25T19:11:49.483Z,107.03
2023-04-25T19:14:16.722Z,93.43
2023-04-25T19:16:44.155Z,85.90
2023-04-25T19:19:17.474Z,105.88
2023-04-25T19:21:44.740Z,102.15
2023-04-25T19:24:11.973Z,100.35
2023-04-25T19:26:39.226Z,96.05
2023-04-25T19:29:14.974Z,89.10
2023-04-25T19:31:45.327Z,92.60
2023-04-25T19:34:13.314Z,80.32
2023-04-25T19:36:42.575Z,70.57
2023-04-25T19:42:01.822Z,62.85
2023-04-25T19:44:41.058Z,66.68
2023-04-25T19:47:27.902Z,69.47
2023-04-25T19:49:55.588Z,67.45
2023-04-25T19:52:22.785Z,66.70
2023-04-25T19:55:01.223Z,75.50
2023-04-25T19:57:33.596Z,88.10
2023-04-25T20:00:17.912Z,90.93
2023-04-25T20:02:47.091Z,94.30
2023-04-25T20:05:24.056Z,85.10
2023-04-25T20:07:54.459Z,92.47
2023-04-25T20:10:21.780Z,87.38
2023-04-25T20:12:49.610Z,92.60
2023-04-25T20:15:17.824Z,99.32
2023-04-25T20:17:45.021Z,89.25
2023-04-25T20:20:12.459Z,76.47
2023-04-25T20:22:40.687Z,69.43
2023-04-25T20:25:09.317Z,58.30
2023-04-25T20:27:40.103Z,67.22
2023-04-25T20:30:12.309Z,68.00
2023-04-25T20:32:39.522Z,57.40
2023-04-25T20:35:11.818Z,68.28
2023-04-25T20:37:38.972Z,64.85
2023-04-25T20:40:09.916Z,67.03
2023-04-25T20:42:37.119Z,75.70
2023-04-25T20:45:12.575Z,64.53
2023-04-25T20:47:40.859Z,61.75
2023-04-25T20:50:08.642Z,62.85
2023-04-25T20:52:37.542Z,60.03
2023-04-25T20:55:06.077Z,60.97
2023-04-25T20:57:36.034Z,60.83
2023-04-25T21:00:20.156Z,63.03
2023-04-25T21:02:47.753Z,57.45
2023-04-25T21:05:18.268Z,64.43
2023-04-25T21:07:45.884Z,69.10
2023-04-25T21:10:23.034Z,64.60
2023-04-25T21:13:01.108Z,67.75
2023-04-25T21:15:30.314Z,56.45
2023-04-25T21:17:59.371Z,62.65
2023-04-25T21:20:29.266Z,73.10
2023-04-25T21:22:56.441Z,68.10
2023-04-25T21:25:29.358Z,69.28
2023-04-25T21:27:56.857Z,78.72
2023-04-25T21:30:26.372Z,76.57
2023-04-25T21:32:53.742Z,72.88
2023-04-25T21:35:21.587Z,67.70
2023-04-25T21:37:48.951Z,64.10
2023-04-25T21:40:16.392Z,64.35
2023-04-25T21:42:44.793Z,59.78
2023-04-25T21:45:12.284Z,63.13
2023-04-25T21:47:39.580Z,56.45
2023-04-25T21:50:08.126Z,73.15
2023-04-25T21:52:45.949Z,73.82
2023-04-25T21:55:13.230Z,66.90
2023-04-25T21:58:10.790Z,65.00
2023-04-25T22:00:38.353Z,63.08
2023-04-25T22:03:06.623Z,53.55
2023-04-25T22:05:35.316Z,61.72
2023-04-25T22:08:03.786Z,59.50
2023-04-25T22:10:31.806Z,58.85
2023-04-25T22:12:59.225Z,51.90
2023-04-25T22:15:26.672Z,54.70
2023-04-25T22:17:56.710Z,59.33
2023-04-25T22:20:26.445Z,59.50
2023-04-25T22:22:54.779Z,68.43
2023-04-25T22:25:22.471Z,67.97
2023-04-25T22:27:49.619Z,68.95
2023-04-25T22:30:17.083Z,76.85
2023-04-25T22:32:44.322Z,79.75
2023-04-25T22:35:12.192Z,75.90
2023-04-25T22:37:39.372Z,73.28
2023-04-25T22:40:07.340Z,68.82
2023-04-25T22:42:41.130Z,72.43
2023-04-25T22:45:09.028Z,73.38
2023-04-25T22:47:37.329Z,68.28
2023-04-25T22:50:07.905Z,67.60
2023-04-25T22:52:35.075Z,72.20
2023-04-25T22:55:05.616Z,80.10
2023-04-25T22:57:33.314Z,87.03
2023-04-25T23:00:00.477Z,118.47
2023-04-25T23:02:28.001Z,105.85
2023-04-25T23:04:55.304Z,104.60
2023-04-25T23:07:22.467Z,97.68
2023-04-25T23:09:49.647Z,103.03
2023-04-25T23:12:22.952Z,99.97
2023-04-25T23:14:52.991Z,66.38
2023-04-25T23:17:20.708Z,62.15
2023-04-25T23:19:48.637Z,60.33
2023-04-25T23:22:15.715Z,59.75
2023-04-25T23:24:42.815Z,59.50
2023-04-25T23:27:12.339Z,58.15
2023-04-25T23:29:40.780Z,59.95
2023-04-25T23:32:10.819Z,63.25
2023-04-25T23:34:38.159Z,62.88
2023-04-25T23:37:05.331Z,58.83
2023-04-25T23:39:33.933Z,42.88
2023-04-25T23:42:01.048Z,24.10
2023-04-25T23:44:28.136Z,16.45
2023-04-25T23:46:55.219Z,14.18
2023-04-25T23:49:22.902Z,13.73
2023-04-25T23:51:50.004Z,11.25
2023-04-25T23:54:17.136Z,11.10
2023-04-25T23:56:44.706Z,9.85
2023-04-25T23:59:11.945Z,8.98
